Terminal Aerodrome Forecast
Issued by NWS Jackson, MS

Home | Current Version | Previous Version | Text Only | Print | Product List | Glossary On
Versions: 1 2 3 4 5 6 7 8 9 10 11 12 13 14
000
FTUS44 KJAN 272337
TAFGLH
TAF
KGLH 272337Z 2800/2824 04013KT P6SM BKN150
     FM280600 04013KT P6SM -SHRA OVC035
     FM280900 05012KT 5SM -TSRA OVC015CB
     FM281200 04010KT 3SM -RA BR OVC007
     FM281700 02016KT 5SM -RA BR OVC015
     FM281900 02017KT P6SM -RA OVC025
     FM282100 04017G22KT P6SM OVC050=

USA.gov is the U.S. government's official web portal to all federal, state and local government web resources and services.